Time;durP1;ratioP1;P1;durP2;ratioP2;P2;SDS_P1;SDS_P2;PMS_P1;PMS_P2;Temp;Humidity;BMP_temperature;BMP_pressure;BME280_temperature;BME280_humidity;BME280_pressure;Samples;Min_cycle;Max_cycle;Signal;HPM_P1;HPM_P2
2022/09/10 00:01:53;;;;;;;3.70;1.77;;;;;;;;;;10131888;29;20415;-80
2022/09/10 00:06:55;;;;;;;3.35;1.75;;;;;;;;;;10131692;29;20431;-80
2022/09/10 00:11:57;;;;;;;2.17;1.50;;;;;;;;;;10130764;29;20448;-80
2022/09/10 00:17:00;;;;;;;1.75;1.20;;;;;;;;;;10130003;29;20424;-80
2022/09/10 00:22:02;;;;;;;2.95;1.10;;;;;;;;;;10129275;29;20505;-79
2022/09/10 00:27:04;;;;;;;1.73;1.10;;;;;;;;;;10115817;29;20954;-80
2022/09/10 00:32:07;;;;;;;3.80;1.90;;;;;;;;;;10098851;29;20521;-80
2022/09/10 00:37:09;;;;;;;3.25;1.10;;;;;;;;;;10131249;29;20906;-80
2022/09/10 00:42:11;;;;;;;1.42;0.90;;;;;;;;;;10130322;29;20409;-81
2022/09/10 00:47:19;;;;;;;0.83;0.80;;;;;;;;;;10129916;29;20421;-80
2022/09/10 00:52:21;;;;;;;1.67;0.82;;;;;;;;;;10128829;29;20437;-80
2022/09/10 00:57:25;;;;;;;1.57;0.83;;;;;;;;;;10127564;29;20424;-80
2022/09/10 01:02:28;;;;;;;2.78;1.40;;;;;;;;;;10115577;29;20500;-80
2022/09/10 01:07:32;;;;;;;3.57;2.10;;;;;;;;;;10125874;29;20419;-80
2022/09/10 01:12:55;;;;;;;2.93;1.97;;;;;;;;;;10126021;29;20429;-80
2022/09/10 01:18:12;;;;;;;2.53;1.77;;;;;;;;;;10125077;29;20410;-80
2022/09/10 01:23:40;;;;;;;4.40;2.20;;;;;;;;;;10124641;29;20413;-80
2022/09/10 01:28:49;;;;;;;2.85;2.38;;;;;;;;;;10105241;29;20787;-80
2022/09/10 01:34:00;;;;;;;3.30;2.23;;;;;;;;;;10129583;29;20465;-80
2022/09/10 01:39:03;;;;;;;4.80;2.50;;;;;;;;;;10129052;29;20851;-80
2022/09/10 01:44:12;;;;;;;4.75;2.67;;;;;;;;;;10128769;29;20418;-80
2022/09/10 01:49:26;;;;;;;3.72;2.33;;;;;;;;;;10128530;29;20797;-80
2022/09/10 01:54:44;;;;;;;3.73;2.47;;;;;;;;;;10116406;29;20510;-79
2022/09/10 01:59:55;;;;;;;2.85;2.30;;;;;;;;;;10127095;29;20504;-80
2022/09/10 02:04:58;;;;;;;3.60;2.40;;;;;;;;;;10126979;29;20421;-80
2022/09/10 02:10:02;;;;;;;2.67;2.08;;;;;;;;;;10127515;29;20950;-80
2022/09/10 02:15:07;;;;;;;4.13;2.30;;;;;;;;;;10127425;29;20433;-80
2022/09/10 02:20:13;;;;;;;6.10;2.75;;;;;;;;;;10126086;29;20410;-80
2022/09/10 02:25:15;;;;;;;4.07;2.40;;;;;;;;;;10121901;29;20503;-79
2022/09/10 02:30:19;;;;;;;3.42;2.47;;;;;;;;;;10127556;29;20516;-80
2022/09/10 02:35:20;;;;;;;4.10;2.10;;;;;;;;;;10109185;29;20916;-80
2022/09/10 02:40:22;;;;;;;3.17;2.40;;;;;;;;;;10118602;29;20424;-80
2022/09/10 02:45:25;;;;;;;5.38;2.42;;;;;;;;;;10098536;29;20427;-80
2022/09/10 02:50:27;;;;;;;3.70;2.30;;;;;;;;;;10110186;29;20532;-79
2022/09/10 02:55:30;;;;;;;2.28;2.08;;;;;;;;;;10128154;29;20437;-80
2022/09/10 03:00:33;;;;;;;4.13;2.50;;;;;;;;;;10126693;29;20500;-80
2022/09/10 03:05:37;;;;;;;2.92;2.40;;;;;;;;;;10129170;29;20430;-80
2022/09/10 03:10:39;;;;;;;3.70;2.73;;;;;;;;;;10127464;29;20424;-80
2022/09/10 03:15:43;;;;;;;3.17;2.50;;;;;;;;;;10133391;29;20572;-80
2022/09/10 03:20:45;;;;;;;3.72;2.20;;;;;;;;;;10131364;29;20790;-80
2022/09/10 03:25:47;;;;;;;4.25;2.20;;;;;;;;;;10130470;29;20496;-79
2022/09/10 03:30:50;;;;;;;4.53;2.25;;;;;;;;;;10129123;29;20448;-78
2022/09/10 03:35:53;;;;;;;3.42;2.63;;;;;;;;;;10132080;29;20802;-80
2022/09/10 03:40:55;;;;;;;3.30;2.65;;;;;;;;;;10108123;29;20505;-80
2022/09/10 03:45:58;;;;;;;3.95;2.72;;;;;;;;;;10122895;29;20423;-80
2022/09/10 03:51:00;;;;;;;3.53;2.70;;;;;;;;;;10129397;29;20419;-79
2022/09/10 03:56:02;;;;;;;4.90;2.55;;;;;;;;;;10125564;29;20445;-80
2022/09/10 04:01:05;;;;;;;4.30;2.70;;;;;;;;;;10132111;29;20496;-80
2022/09/10 04:06:10;;;;;;;4.25;3.03;;;;;;;;;;10131344;29;20417;-80
2022/09/10 04:11:12;;;;;;;3.92;2.83;;;;;;;;;;10130995;29;20423;-80
2022/09/10 04:16:16;;;;;;;3.00;2.70;;;;;;;;;;10129182;29;20440;-78
2022/09/10 04:21:19;;;;;;;2.83;2.53;;;;;;;;;;10127191;29;20422;-80
2022/09/10 04:26:21;;;;;;;3.07;2.77;;;;;;;;;;10105637;29;20761;-80
2022/09/10 04:31:24;;;;;;;3.42;2.60;;;;;;;;;;10124771;29;20419;-80
2022/09/10 04:36:26;;;;;;;4.40;2.83;;;;;;;;;;10132164;29;20413;-80
2022/09/10 04:41:28;;;;;;;4.25;2.70;;;;;;;;;;10131208;29;20431;-80
2022/09/10 04:46:31;;;;;;;3.03;2.53;;;;;;;;;;10130607;29;20421;-80
2022/09/10 04:51:33;;;;;;;3.17;2.60;;;;;;;;;;10128934;29;20421;-80
2022/09/10 04:56:35;;;;;;;5.53;3.15;;;;;;;;;;10128876;29;20460;-80
2022/09/10 05:01:38;;;;;;;3.95;2.90;;;;;;;;;;10128328;29;20883;-80
2022/09/10 05:06:40;;;;;;;3.53;2.90;;;;;;;;;;10127675;29;20488;-80
2022/09/10 05:11:42;;;;;;;5.38;3.00;;;;;;;;;;10115448;29;20919;-80
2022/09/10 05:16:45;;;;;;;6.60;3.47;;;;;;;;;;10127184;29;20421;-80
2022/09/10 05:21:48;;;;;;;5.13;3.40;;;;;;;;;;10125199;29;20840;-80
2022/09/10 05:26:50;;;;;;;4.43;2.92;;;;;;;;;;10125165;29;20415;-80
2022/09/10 05:31:53;;;;;;;5.60;2.97;;;;;;;;;;10123134;29;20507;-80
2022/09/10 05:36:55;;;;;;;4.55;3.35;;;;;;;;;;10129559;29;20492;-80
2022/09/10 05:41:57;;;;;;;5.07;3.40;;;;;;;;;;10129274;29;20421;-80
2022/09/10 05:47:00;;;;;;;3.97;3.22;;;;;;;;;;10127376;29;20965;-79
2022/09/10 05:52:02;;;;;;;4.18;3.42;;;;;;;;;;10127176;29;20532;-80
2022/09/10 05:57:05;;;;;;;5.90;3.80;;;;;;;;;;10126247;29;20445;-80
2022/09/10 06:02:15;;;;;;;5.35;3.85;;;;;;;;;;10124453;29;20469;-80
2022/09/10 06:07:17;;;;;;;5.63;3.70;;;;;;;;;;10123447;29;20413;-79
2022/09/10 06:12:19;;;;;;;5.78;3.45;;;;;;;;;;10123271;29;20428;-80
2022/09/10 06:17:22;;;;;;;6.82;3.72;;;;;;;;;;10123534;29;20432;-79
2022/09/10 06:22:24;;;;;;;9.55;3.88;;;;;;;;;;10121946;29;20417;-79
2022/09/10 06:27:26;;;;;;;5.78;3.22;;;;;;;;;;10121491;29;20417;-79
2022/09/10 06:32:29;;;;;;;4.80;2.30;;;;;;;;;;10120430;29;20433;-80
2022/09/10 06:37:33;;;;;;;5.18;2.33;;;;;;;;;;10093377;29;20967;-79
2022/09/10 06:42:35;;;;;;;4.03;2.20;;;;;;;;;;10099067;29;20423;-79
2022/09/10 06:47:38;;;;;;;3.63;2.28;;;;;;;;;;10099458;29;20429;-80
2022/09/10 06:52:39;;;;;;;3.20;2.20;;;;;;;;;;10110514;29;20440;-79
2022/09/10 06:57:41;;;;;;;3.33;2.22;;;;;;;;;;10104288;29;21033;-80
2022/09/10 07:02:44;;;;;;;3.57;2.00;;;;;;;;;;10135788;29;20413;-79
2022/09/10 07:07:46;;;;;;;2.40;1.92;;;;;;;;;;10133969;29;20492;-80
2022/09/10 07:12:49;;;;;;;2.97;1.90;;;;;;;;;;10133349;29;20436;-79
2022/09/10 07:17:52;;;;;;;2.53;1.98;;;;;;;;;;10132248;29;20417;-79
2022/09/10 07:22:55;;;;;;;6.13;2.22;;;;;;;;;;10120584;29;20492;-79
2022/09/10 07:27:56;;;;;;;2.10;1.27;;;;;;;;;;10131393;29;20888;-80
2022/09/10 07:32:59;;;;;;;1.50;1.10;;;;;;;;;;10130657;29;20508;-78
2022/09/10 07:38:02;;;;;;;4.20;1.47;;;;;;;;;;10133810;29;20500;-80
2022/09/10 07:43:04;;;;;;;3.15;1.42;;;;;;;;;;10133553;29;20417;-80
2022/09/10 07:48:07;;;;;;;2.30;1.10;;;;;;;;;;10132823;29;20496;-80
2022/09/10 07:53:10;;;;;;;2.30;1.00;;;;;;;;;;10132208;29;20443;-80
2022/09/10 07:58:11;;;;;;;5.50;1.20;;;;;;;;;;10131715;29;20421;-79
2022/09/10 08:03:17;;;;;;;1.90;0.80;;;;;;;;;;10130481;29;20493;-78
2022/09/10 08:08:19;;;;;;;1.35;0.70;;;;;;;;;;10130092;29;20477;-79
2022/09/10 08:13:21;;;;;;;2.78;0.55;;;;;;;;;;10130128;29;20446;-79
2022/09/10 08:18:25;;;;;;;1.23;0.70;;;;;;;;;;10129960;29;20441;-80
2022/09/10 08:23:27;;;;;;;3.10;0.73;;;;;;;;;;10130023;29;20511;-80
2022/09/10 08:28:29;;;;;;;1.70;0.80;;;;;;;;;;10130009;29;20425;-79
2022/09/10 08:33:33;;;;;;;1.23;0.77;;;;;;;;;;10128386;29;20575;-80
2022/09/10 08:38:37;;;;;;;2.35;0.88;;;;;;;;;;10131396;29;20848;-80
2022/09/10 08:43:44;;;;;;;1.63;0.80;;;;;;;;;;10130122;29;20466;-80
2022/09/10 08:48:53;;;;;;;0.88;0.50;;;;;;;;;;10129848;29;20890;-80
2022/09/10 08:53:59;;;;;;;0.50;0.43;;;;;;;;;;10117409;29;20446;-78
2022/09/10 08:59:04;;;;;;;0.65;0.38;;;;;;;;;;10126750;29;20416;-79
2022/09/10 09:04:16;;;;;;;1.25;0.40;;;;;;;;;;10127964;29;20497;-79
2022/09/10 09:09:18;;;;;;;0.40;0.35;;;;;;;;;;10126708;29;20444;-80
2022/09/10 09:14:44;;;;;;;1.33;0.38;;;;;;;;;;10126054;29;20515;-79
2022/09/10 09:19:57;;;;;;;2.20;0.40;;;;;;;;;;10123542;29;20783;-80
2022/09/10 09:25:01;;;;;;;1.00;0.47;;;;;;;;;;10123647;29;20423;-79
2022/09/10 09:30:05;;;;;;;0.30;0.30;;;;;;;;;;10122832;29;20425;-81
2022/09/10 09:35:22;;;;;;;0.38;0.38;;;;;;;;;;10126055;29;20518;-80
2022/09/10 09:40:29;;;;;;;0.70;0.40;;;;;;;;;;10129365;29;20890;-79
2022/09/10 09:45:36;;;;;;;0.50;0.40;;;;;;;;;;10129039;29;20421;-78
2022/09/10 09:50:41;;;;;;;0.80;0.50;;;;;;;;;;10126934;29;20420;-80
2022/09/10 09:55:46;;;;;;;0.60;0.40;;;;;;;;;;10127079;29;20938;-80
2022/09/10 10:00:50;;;;;;;0.65;0.40;;;;;;;;;;10127001;29;20770;-79
2022/09/10 10:06:00;;;;;;;1.13;0.60;;;;;;;;;;10127432;29;20425;-79
2022/09/10 10:11:03;;;;;;;1.95;0.60;;;;;;;;;;10128979;29;20419;-80
2022/09/10 10:16:17;;;;;;;1.00;0.50;;;;;;;;;;10134979;29;20443;-79
2022/09/10 10:21:22;;;;;;;1.30;0.70;;;;;;;;;;10133717;29;21249;-80
2022/09/10 10:26:30;;;;;;;2.10;0.50;;;;;;;;;;10133837;29;20424;-80
2022/09/10 10:31:39;;;;;;;0.45;0.40;;;;;;;;;;10132237;29;20413;-79
2022/09/10 10:36:52;;;;;;;1.50;0.30;;;;;;;;;;10125107;29;20439;-80
2022/09/10 10:42:05;;;;;;;1.20;0.52;;;;;;;;;;10136345;29;20409;-79
2022/09/10 10:47:27;;;;;;;0.60;0.30;;;;;;;;;;10135473;29;20507;-80
2022/09/10 10:52:40;;;;;;;0.57;0.43;;;;;;;;;;10126042;29;20409;-78
2022/09/10 10:58:11;;;;;;;0.80;0.30;;;;;;;;;;10135364;29;20500;-79
2022/09/10 11:03:20;;;;;;;0.45;0.40;;;;;;;;;;10134422;29;20416;-79
2022/09/10 11:08:30;;;;;;;1.10;0.43;;;;;;;;;;10133837;29;20500;-79
2022/09/10 11:13:36;;;;;;;0.40;0.40;;;;;;;;;;10130949;29;20520;-80
2022/09/10 11:18:43;;;;;;;1.48;0.50;;;;;;;;;;10129711;29;20415;-79
2022/09/10 11:23:51;;;;;;;0.67;0.33;;;;;;;;;;10128396;29;20504;-79
2022/09/10 11:28:59;;;;;;;0.38;0.38;;;;;;;;;;10128324;29;20413;-79
2022/09/10 11:34:05;;;;;;;1.00;0.30;;;;;;;;;;10128906;29;20497;-78
2022/09/10 11:39:18;;;;;;;0.50;0.50;;;;;;;;;;10133575;29;20476;-79
2022/09/10 11:44:43;;;;;;;1.70;0.50;;;;;;;;;;10121736;29;20496;-79
2022/09/10 11:49:52;;;;;;;1.20;0.40;;;;;;;;;;10131858;29;20489;-80
2022/09/10 11:54:57;;;;;;;0.35;0.35;;;;;;;;;;10131441;29;20558;-80
2022/09/10 12:00:14;;;;;;;2.42;0.63;;;;;;;;;;10130293;29;20848;-80
2022/09/10 12:05:24;;;;;;;0.35;0.30;;;;;;;;;;10121333;29;20417;-79
2022/09/10 12:10:34;;;;;;;1.20;0.50;;;;;;;;;;10129754;29;20507;-80
2022/09/10 12:15:37;;;;;;;0.65;0.50;;;;;;;;;;10130899;29;20528;-79
2022/09/10 12:20:43;;;;;;;1.00;0.40;;;;;;;;;;10128762;29;20421;-79
2022/09/10 12:25:58;;;;;;;0.30;0.30;;;;;;;;;;10117357;29;20503;-79
2022/09/10 12:31:03;;;;;;;0.47;0.40;;;;;;;;;;10127207;29;20502;-79
2022/09/10 12:36:05;;;;;;;0.80;0.40;;;;;;;;;;10130173;29;20519;-79
2022/09/10 12:41:13;;;;;;;0.70;0.40;;;;;;;;;;10131749;29;20413;-79
2022/09/10 12:46:21;;;;;;;1.05;0.45;;;;;;;;;;10131902;29;20478;-80
2022/09/10 12:51:33;;;;;;;0.60;0.50;;;;;;;;;;10130116;29;20416;-78
2022/09/10 12:57:12;;;;;;;0.73;0.43;;;;;;;;;;10130113;29;20524;-78
2022/09/10 13:02:28;;;;;;;0.40;0.40;;;;;;;;;;10611409;27;20359;-80
2022/09/10 13:07:39;;;;;;;0.38;0.30;;;;;;;;;;10595059;28;20410;-79
2022/09/10 13:12:43;;;;;;;0.60;0.40;;;;;;;;;;10572345;28;20420;-80
2022/09/10 13:18:24;;;;;;;1.02;0.40;;;;;;;;;;10579044;28;20443;-80
2022/09/10 13:23:47;;;;;;;0.38;0.30;;;;;;;;;;10574875;28;20731;-79
2022/09/10 13:29:08;;;;;;;0.30;0.30;;;;;;;;;;10569321;28;20392;-80
2022/09/10 13:40:31;;;;;;;0.43;0.30;;;;;;;;;;10612153;27;20367;-80
2022/09/10 13:45:39;;;;;;;0.85;0.32;;;;;;;;;;10573846;28;20480;-80
2022/09/10 13:50:49;;;;;;;0.30;0.30;;;;;;;;;;10569505;28;20405;-80
2022/09/10 13:55:56;;;;;;;1.70;0.40;;;;;;;;;;10591853;28;20508;-81
2022/09/10 14:01:02;;;;;;;0.80;0.47;;;;;;;;;;10579579;28;20476;-80
2022/09/10 14:06:06;;;;;;;0.80;0.40;;;;;;;;;;10590496;28;20429;-80
2022/09/10 14:11:17;;;;;;;0.98;0.50;;;;;;;;;;10578280;27;20402;-81
2022/09/10 14:16:23;;;;;;;0.30;0.30;;;;;;;;;;10561896;28;20935;-80
2022/09/10 14:21:26;;;;;;;0.30;0.30;;;;;;;;;;10563337;28;20439;-80
2022/09/10 14:26:32;;;;;;;1.00;0.50;;;;;;;;;;10584839;27;20424;-80
2022/09/10 14:31:37;;;;;;;1.15;0.30;;;;;;;;;;10578601;28;20399;-80
2022/09/10 14:36:39;;;;;;;0.70;0.40;;;;;;;;;;10587014;28;20425;-80
2022/09/10 14:41:40;;;;;;;0.60;0.30;;;;;;;;;;10586671;27;20864;-80
2022/09/10 14:46:51;;;;;;;0.60;0.43;;;;;;;;;;10572960;28;20415;-80
2022/09/10 14:51:53;;;;;;;0.30;0.30;;;;;;;;;;10565392;28;20402;-81
2022/09/10 14:56:56;;;;;;;0.30;0.30;;;;;;;;;;10548804;28;20439;-80
2022/09/10 15:02:01;;;;;;;0.60;0.30;;;;;;;;;;10551109;28;20404;-80
2022/09/10 15:07:03;;;;;;;0.83;0.30;;;;;;;;;;10559742;28;20491;-80
2022/09/10 15:12:08;;;;;;;0.40;0.40;;;;;;;;;;10541615;28;20502;-81
2022/09/10 15:17:13;;;;;;;2.00;0.30;;;;;;;;;;10551309;28;20548;-80
2022/09/10 15:22:22;;;;;;;0.90;0.30;;;;;;;;;;10575859;28;20430;-80
2022/09/10 15:27:24;;;;;;;0.30;0.30;;;;;;;;;;10575843;28;20402;-79
2022/09/10 15:32:27;;;;;;;0.90;0.40;;;;;;;;;;10547106;28;20772;-81
2022/09/10 15:37:29;;;;;;;0.60;0.45;;;;;;;;;;10549941;28;20466;-81
2022/09/10 15:42:30;;;;;;;1.58;0.40;;;;;;;;;;10536894;28;20483;-81
2022/09/10 15:47:35;;;;;;;0.50;0.40;;;;;;;;;;10562444;28;20499;-80
2022/09/10 15:52:36;;;;;;;0.50;0.32;;;;;;;;;;10537971;28;20440;-80
2022/09/10 15:57:39;;;;;;;0.70;0.40;;;;;;;;;;10532874;28;20451;-80
2022/09/10 16:02:46;;;;;;;0.90;0.40;;;;;;;;;;10535696;28;20430;-80
2022/09/10 16:07:48;;;;;;;0.55;0.22;;;;;;;;;;10536595;28;20797;-80
2022/09/10 16:12:50;;;;;;;0.90;0.40;;;;;;;;;;10542724;28;20396;-80
2022/09/10 16:17:53;;;;;;;0.43;0.30;;;;;;;;;;10557704;28;20471;-80
2022/09/10 16:22:57;;;;;;;0.85;0.30;;;;;;;;;;10542975;28;20499;-79
2022/09/10 16:27:58;;;;;;;1.70;0.40;;;;;;;;;;10531648;28;20790;-81
2022/09/10 16:33:02;;;;;;;1.00;0.30;;;;;;;;;;10546424;28;20394;-80
2022/09/10 16:38:03;;;;;;;3.10;0.50;;;;;;;;;;10562876;28;20438;-80
2022/09/10 16:43:05;;;;;;;1.20;0.50;;;;;;;;;;10562322;28;20477;-81
2022/09/10 16:48:09;;;;;;;1.30;0.40;;;;;;;;;;10547241;28;20391;-81
2022/09/10 16:53:11;;;;;;;0.70;0.40;;;;;;;;;;10572320;28;20469;-81
2022/09/10 16:58:13;;;;;;;1.30;0.50;;;;;;;;;;10557443;28;20421;-80
2022/09/10 17:03:16;;;;;;;0.95;0.40;;;;;;;;;;10542732;28;20403;-81
2022/09/10 17:08:19;;;;;;;1.73;0.57;;;;;;;;;;10552391;28;20482;-80
2022/09/10 17:13:20;;;;;;;0.60;0.50;;;;;;;;;;10554510;28;20470;-80
2022/09/10 17:18:24;;;;;;;1.92;0.65;;;;;;;;;;10537282;28;20635;-81
2022/09/10 17:23:25;;;;;;;1.20;0.60;;;;;;;;;;10538068;28;20423;-81
2022/09/10 17:28:27;;;;;;;1.48;0.63;;;;;;;;;;10510558;28;20493;-80
2022/09/10 17:33:32;;;;;;;1.63;0.80;;;;;;;;;;10520599;28;20752;-80
2022/09/10 17:38:34;;;;;;;1.00;0.80;;;;;;;;;;10504543;28;20467;-80
2022/09/10 17:43:37;;;;;;;1.15;0.73;;;;;;;;;;10535214;28;20427;-80
2022/09/10 17:48:43;;;;;;;1.37;0.80;;;;;;;;;;10540242;28;20399;-80
2022/09/10 17:53:45;;;;;;;1.70;0.90;;;;;;;;;;10554410;28;20396;-80
2022/09/10 17:58:47;;;;;;;1.20;1.00;;;;;;;;;;10558148;28;20424;-80
2022/09/10 18:03:51;;;;;;;1.48;1.23;;;;;;;;;;10539855;28;20398;-80
2022/09/10 18:08:53;;;;;;;2.05;1.15;;;;;;;;;;10558477;28;20475;-80
2022/09/10 18:13:57;;;;;;;1.67;1.42;;;;;;;;;;10547754;28;20398;-79
2022/09/10 18:19:02;;;;;;;1.98;1.20;;;;;;;;;;10554960;22;20416;-87
2022/09/10 18:24:07;;;;;;;2.10;1.30;;;;;;;;;;10452316;28;20435;-86
2022/09/10 18:29:13;;;;;;;1.95;1.00;;;;;;;;;;10456496;28;20412;-87
2022/09/10 18:34:19;;;;;;;1.65;0.90;;;;;;;;;;10456770;28;20765;-87
2022/09/10 18:39:21;;;;;;;1.92;1.17;;;;;;;;;;10456060;28;20478;-87
2022/09/10 18:44:25;;;;;;;1.90;1.10;;;;;;;;;;10456328;28;20402;-87
2022/09/10 18:49:28;;;;;;;3.03;1.38;;;;;;;;;;10455752;28;20764;-86
2022/09/10 18:54:30;;;;;;;2.57;1.10;;;;;;;;;;10456178;28;20418;-85
2022/09/10 18:59:32;;;;;;;3.30;1.23;;;;;;;;;;10455400;28;20423;-87
2022/09/10 19:04:35;;;;;;;1.20;0.97;;;;;;;;;;10455297;28;20411;-85
2022/09/10 19:09:38;;;;;;;1.55;1.10;;;;;;;;;;10455158;28;20431;-87
2022/09/10 19:14:40;;;;;;;1.40;0.90;;;;;;;;;;10455945;28;20432;-87
2022/09/10 19:19:43;;;;;;;1.40;0.70;;;;;;;;;;10454854;28;20527;-86
2022/09/10 19:24:46;;;;;;;2.35;0.80;;;;;;;;;;10454799;28;20491;-86
2022/09/10 19:29:48;;;;;;;1.60;0.88;;;;;;;;;;10454353;28;20449;-87
2022/09/10 19:34:54;;;;;;;1.67;0.80;;;;;;;;;;10454722;28;20427;-85
2022/09/10 19:39:56;;;;;;;2.10;0.90;;;;;;;;;;10453992;28;20427;-86
2022/09/10 19:44:57;;;;;;;1.05;0.80;;;;;;;;;;10453983;28;20494;-86
2022/09/10 19:50:01;;;;;;;1.30;0.80;;;;;;;;;;10453654;28;20486;-86
2022/09/10 19:55:02;;;;;;;1.70;0.73;;;;;;;;;;10453344;28;20764;-86
2022/09/10 20:00:05;;;;;;;1.17;0.60;;;;;;;;;;10453112;28;20459;-89
2022/09/10 20:05:09;;;;;;;2.20;0.80;;;;;;;;;;10453151;28;20892;-86
2022/09/10 20:10:11;;;;;;;2.83;0.80;;;;;;;;;;10453129;28;20884;-86
2022/09/10 20:15:13;;;;;;;0.77;0.50;;;;;;;;;;10452856;28;20475;-87
2022/09/10 20:20:18;;;;;;;1.58;0.80;;;;;;;;;;10452154;28;20427;-86
2022/09/10 20:25:20;;;;;;;1.50;0.70;;;;;;;;;;10452160;28;20408;-86
2022/09/10 20:30:22;;;;;;;0.90;0.70;;;;;;;;;;10465166;28;20764;-86
2022/09/10 20:35:25;;;;;;;0.90;0.60;;;;;;;;;;10451903;28;20399;-86
2022/09/10 20:40:27;;;;;;;0.80;0.73;;;;;;;;;;10451650;28;20518;-85
2022/09/10 20:45:30;;;;;;;1.60;0.80;;;;;;;;;;10451196;28;20483;-86
2022/09/10 20:50:33;;;;;;;3.03;0.70;;;;;;;;;;10438740;28;20963;-85
2022/09/10 20:55:35;;;;;;;1.55;0.65;;;;;;;;;;10451465;28;20406;-86
2022/09/10 21:00:36;;;;;;;1.30;0.65;;;;;;;;;;10451085;28;20761;-86
2022/09/10 21:05:48;;;;;;;0.90;0.60;;;;;;;;;;10450732;28;20900;-85
2022/09/10 21:10:50;;;;;;;2.22;0.70;;;;;;;;;;10439505;28;20415;-86
2022/09/10 21:15:52;;;;;;;1.25;0.60;;;;;;;;;;10450996;28;20491;-85
2022/09/10 21:21:05;;;;;;;0.77;0.60;;;;;;;;;;10450383;28;20515;-87
2022/09/10 21:26:06;;;;;;;1.90;0.65;;;;;;;;;;10450089;28;20482;-87
2022/09/10 21:31:09;;;;;;;1.60;0.52;;;;;;;;;;10450123;28;20486;-88
2022/09/10 21:36:13;;;;;;;1.67;0.60;;;;;;;;;;10449503;28;20894;-88
2022/09/10 21:41:16;;;;;;;2.17;0.70;;;;;;;;;;10450044;28;20423;-88
2022/09/10 21:46:18;;;;;;;2.05;0.60;;;;;;;;;;10449902;28;20405;-86
2022/09/10 21:51:22;;;;;;;1.80;0.50;;;;;;;;;;10449590;28;20954;-88
2022/09/10 21:56:26;;;;;;;1.45;0.70;;;;;;;;;;10449773;28;20498;-88
2022/09/10 22:01:30;;;;;;;1.92;0.80;;;;;;;;;;10457341;28;20419;-87
2022/09/10 22:06:34;;;;;;;0.90;0.50;;;;;;;;;;10457978;28;20479;-88
2022/09/10 22:11:38;;;;;;;1.42;0.90;;;;;;;;;;10457520;28;20498;-87
2022/09/10 22:16:40;;;;;;;2.37;0.90;;;;;;;;;;10457080;28;20443;-87
2022/09/10 22:21:43;;;;;;;4.43;0.80;;;;;;;;;;10456529;28;20499;-88
2022/09/10 22:26:46;;;;;;;1.20;0.60;;;;;;;;;;10456578;28;20434;-87
2022/09/10 22:31:48;;;;;;;2.60;0.80;;;;;;;;;;10457147;28;20404;-88
2022/09/10 22:36:52;;;;;;;1.00;0.50;;;;;;;;;;10456283;28;20745;-88
2022/09/10 22:41:54;;;;;;;1.63;0.77;;;;;;;;;;10457021;28;20418;-89
2022/09/10 22:46:56;;;;;;;1.35;0.90;;;;;;;;;;10456555;28;20471;-87
2022/09/10 22:51:59;;;;;;;1.70;0.70;;;;;;;;;;10443452;28;20408;-87
2022/09/10 22:57:01;;;;;;;2.78;1.15;;;;;;;;;;10455918;28;20399;-87
2022/09/10 23:02:04;;;;;;;3.47;1.23;;;;;;;;;;10456322;28;20510;-86
2022/09/10 23:07:07;;;;;;;3.67;1.00;;;;;;;;;;10456017;28;20408;-87
2022/09/10 23:12:09;;;;;;;3.00;1.07;;;;;;;;;;10454795;28;20404;-87
2022/09/10 23:17:10;;;;;;;3.05;0.93;;;;;;;;;;10455203;28;20782;-85
2022/09/10 23:22:16;;;;;;;1.50;0.70;;;;;;;;;;10454987;28;20929;-87
2022/09/10 23:27:18;;;;;;;1.98;0.90;;;;;;;;;;10454503;28;20487;-88
2022/09/10 23:32:20;;;;;;;2.20;0.93;;;;;;;;;;10455518;28;20775;-87
2022/09/10 23:37:24;;;;;;;1.73;0.95;;;;;;;;;;10454192;28;20412;-86
2022/09/10 23:42:26;;;;;;;2.90;1.25;;;;;;;;;;10454543;28;20404;-87
2022/09/10 23:47:28;;;;;;;2.00;0.80;;;;;;;;;;10453788;28;20423;-87
2022/09/10 23:52:31;;;;;;;1.25;0.85;;;;;;;;;;10453801;28;20443;-86
2022/09/10 23:57:33;;;;;;;1.63;0.90;;;;;;;;;;10452926;28;20473;-87
